<?xml version="1.0" encoding="UTF-8" standalone="no" ?>
<gpx xmlns="http://www.topografix.com/GPX/1/1" xmlns:xsi="http://www.w3.org/2001/XMLSchema-instance" xsi:schemaLocation="http://www.topografix.com/GPX/1/1 http://www.topografix.com/GPX/1/1/gpx.xsd" version="1.1" creator="VisuGPX - https://www.visugpx.com">
  <metadata>
    <name>MADERE - PEDESTRE - Cabo Girao</name>
    <desc><![CDATA[Départ depuis Funchal par bus n° 7 vers Ribeira Brava, arrêt Cruz da Caldeira. Randonnée en direction de Funchal via Câmara de Lobos jusqu\'à l\'hôtel Orca Praia.]]></desc>
  </metadata>
  <wpt lat="32.65648" lon="-17.00438">
    <name><![CDATA[Cabo Girao]]></name>
  </wpt>
  <wpt lat="32.66323" lon="-17.00271">
    <name><![CDATA[Départ Arrêt de bus (7)]]></name>
  </wpt>
  <wpt lat="32.64341" lon="-16.95951">
    <ele>32</ele>
    <name><![CDATA[Hôtel Orca Praia]]></name>
    <desc><![CDATA[02-MAI-13 4:06:10]]></desc>
  </wpt>
  <trk>
    <name><![CDATA[ACTIVE LOG]]></name>
    <trkseg>
      <trkpt lat="32.66323" lon="-17.00271">
        <ele>596.154785</ele>
        <time>2013-05-02T12:58:10Z</time>
      </trkpt>
      <trkpt lat="32.66323" lon="-17.00271">
        <ele>596.154785</ele>
        <time>2013-05-02T12:58:11Z</time>
      </trkpt>
      <trkpt lat="32.66323" lon="-17.00271">
        <ele>597.115967</ele>
        <time>2013-05-02T12:58:13Z</time>
      </trkpt>
      <trkpt lat="32.66324" lon="-17.00272">
        <ele>600.480713</ele>
        <time>2013-05-02T12:58:29Z</time>
      </trkpt>
      <trkpt lat="32.66324" lon="-17.00273">
        <ele>600.480713</ele>
        <time>2013-05-02T12:58:30Z</time>
      </trkpt>
      <trkpt lat="32.66327" lon="-17.00288">
        <ele>600.961182</ele>
        <time>2013-05-02T12:58:47Z</time>
      </trkpt>
      <trkpt lat="32.66324" lon="-17.00298">
        <ele>600.480713</ele>
        <time>2013-05-02T12:58:59Z</time>
      </trkpt>
      <trkpt lat="32.66304" lon="-17.00313">
        <ele>600</ele>
        <time>2013-05-02T12:59:19Z</time>
      </trkpt>
      <trkpt lat="32.66276" lon="-17.00339">
        <ele>598.557861</ele>
        <time>2013-05-02T12:59:46Z</time>
      </trkpt>
      <trkpt lat="32.66253" lon="-17.0035">
        <ele>599.038574</ele>
        <time>2013-05-02T13:00:04Z</time>
      </trkpt>
      <trkpt lat="32.66227" lon="-17.00358">
        <ele>600.480713</ele>
        <time>2013-05-02T13:00:25Z</time>
      </trkpt>
      <trkpt lat="32.66204" lon="-17.00366">
        <ele>602.883789</ele>
        <time>2013-05-02T13:00:43Z</time>
      </trkpt>
      <trkpt lat="32.66174" lon="-17.00378">
        <ele>606.729248</ele>
        <time>2013-05-02T13:01:07Z</time>
      </trkpt>
      <trkpt lat="32.66149" lon="-17.00383">
        <ele>608.171387</ele>
        <time>2013-05-02T13:01:28Z</time>
      </trkpt>
      <trkpt lat="32.66125" lon="-17.00378">
        <ele>612.016602</ele>
        <time>2013-05-02T13:01:48Z</time>
      </trkpt>
      <trkpt lat="32.66123" lon="-17.00378">
        <ele>612.49707</ele>
        <time>2013-05-02T13:01:50Z</time>
      </trkpt>
      <trkpt lat="32.66099" lon="-17.00372">
        <ele>615.381104</ele>
        <time>2013-05-02T13:02:10Z</time>
      </trkpt>
      <trkpt lat="32.66076" lon="-17.00366">
        <ele>618.264893</ele>
        <time>2013-05-02T13:02:29Z</time>
      </trkpt>
      <trkpt lat="32.66054" lon="-17.00358">
        <ele>621.629639</ele>
        <time>2013-05-02T13:02:46Z</time>
      </trkpt>
      <trkpt lat="32.66028" lon="-17.00348">
        <ele>624.994385</ele>
        <time>2013-05-02T13:03:06Z</time>
      </trkpt>
      <trkpt lat="32.66002" lon="-17.00328">
        <ele>625.955566</ele>
        <time>2013-05-02T13:03:28Z</time>
      </trkpt>
      <trkpt lat="32.65981" lon="-17.00309">
        <ele>624.513672</ele>
        <time>2013-05-02T13:03:48Z</time>
      </trkpt>
      <trkpt lat="32.65955" lon="-17.00297">
        <ele>623.55249</ele>
        <time>2013-05-02T13:04:09Z</time>
      </trkpt>
      <trkpt lat="32.6594" lon="-17.00313">
        <ele>620.668457</ele>
        <time>2013-05-02T13:04:25Z</time>
      </trkpt>
      <trkpt lat="32.65936" lon="-17.00351">
        <ele>617.78418</ele>
        <time>2013-05-02T13:04:47Z</time>
      </trkpt>
      <trkpt lat="32.65934" lon="-17.00371">
        <ele>614.419678</ele>
        <time>2013-05-02T13:04:59Z</time>
      </trkpt>
      <trkpt lat="32.65921" lon="-17.00402">
        <ele>612.49707</ele>
        <time>2013-05-02T13:05:19Z</time>
      </trkpt>
      <trkpt lat="32.65906" lon="-17.00419">
        <ele>609.132568</ele>
        <time>2013-05-02T13:05:34Z</time>
      </trkpt>
      <trkpt lat="32.65884" lon="-17.0044">
        <ele>607.209961</ele>
        <time>2013-05-02T13:05:55Z</time>
      </trkpt>
      <trkpt lat="32.65862" lon="-17.00464">
        <ele>606.729248</ele>
        <time>2013-05-02T13:06:16Z</time>
      </trkpt>
      <trkpt lat="32.6584" lon="-17.00479">
        <ele>606.729248</ele>
        <time>2013-05-02T13:06:35Z</time>
      </trkpt>
      <trkpt lat="32.65815" lon="-17.00478">
        <ele>605.768066</ele>
        <time>2013-05-02T13:06:54Z</time>
      </trkpt>
      <trkpt lat="32.65792" lon="-17.00475">
        <ele>602.883789</ele>
        <time>2013-05-02T13:07:10Z</time>
      </trkpt>
      <trkpt lat="32.65774" lon="-17.00472">
        <ele>600.480713</ele>
        <time>2013-05-02T13:07:24Z</time>
      </trkpt>
      <trkpt lat="32.65753" lon="-17.00483">
        <ele>598.557861</ele>
        <time>2013-05-02T13:07:41Z</time>
      </trkpt>
      <trkpt lat="32.65733" lon="-17.00497">
        <ele>598.557861</ele>
        <time>2013-05-02T13:07:58Z</time>
      </trkpt>
      <trkpt lat="32.65716" lon="-17.00526">
        <ele>598.077393</ele>
        <time>2013-05-02T13:08:19Z</time>
      </trkpt>
      <trkpt lat="32.65714" lon="-17.00532">
        <ele>597.115967</ele>
        <time>2013-05-02T13:08:23Z</time>
      </trkpt>
      <trkpt lat="32.6571" lon="-17.00534">
        <ele>597.59668</ele>
        <time>2013-05-02T13:08:26Z</time>
      </trkpt>
      <trkpt lat="32.65704" lon="-17.00528">
        <ele>596.635498</ele>
        <time>2013-05-02T13:08:32Z</time>
      </trkpt>
      <trkpt lat="32.65698" lon="-17.00493">
        <ele>594.712646</ele>
        <time>2013-05-02T13:08:55Z</time>
      </trkpt>
      <trkpt lat="32.65695" lon="-17.00463">
        <ele>591.348145</ele>
        <time>2013-05-02T13:09:14Z</time>
      </trkpt>
      <trkpt lat="32.65671" lon="-17.00446">
        <ele>589.90625</ele>
        <time>2013-05-02T13:09:33Z</time>
      </trkpt>
      <trkpt lat="32.6565" lon="-17.00438">
        <ele>588.945068</ele>
        <time>2013-05-02T13:09:51Z</time>
      </trkpt>
      <trkpt lat="32.65651" lon="-17.00437">
        <ele>588.945068</ele>
        <time>2013-05-02T13:10:09Z</time>
      </trkpt>
      <trkpt lat="32.65654" lon="-17.00436">
        <ele>588.945068</ele>
        <time>2013-05-02T13:10:27Z</time>
      </trkpt>
      <trkpt lat="32.65653" lon="-17.00436">
        <ele>588.945068</ele>
        <time>2013-05-02T13:10:29Z</time>
      </trkpt>
      <trkpt lat="32.65645" lon="-17.00443">
        <ele>587.983398</ele>
        <time>2013-05-02T13:10:48Z</time>
      </trkpt>
      <trkpt lat="32.65644" lon="-17.00446">
        <ele>588.464355</ele>
        <time>2013-05-02T13:11:10Z</time>
      </trkpt>
      <trkpt lat="32.65645" lon="-17.0045">
        <ele>587.983398</ele>
        <time>2013-05-02T13:11:43Z</time>
      </trkpt>
      <trkpt lat="32.65646" lon="-17.00449">
        <ele>588.464355</ele>
        <time>2013-05-02T13:12:04Z</time>
      </trkpt>
      <trkpt lat="32.65646" lon="-17.00444">
        <ele>588.464355</ele>
        <time>2013-05-02T13:12:24Z</time>
      </trkpt>
      <trkpt lat="32.65647" lon="-17.00443">
        <ele>588.464355</ele>
        <time>2013-05-02T13:12:25Z</time>
      </trkpt>
      <trkpt lat="32.65651" lon="-17.00442">
        <ele>589.425537</ele>
        <time>2013-05-02T13:12:32Z</time>
      </trkpt>
      <trkpt lat="32.65649" lon="-17.00449">
        <ele>588.945068</ele>
        <time>2013-05-02T13:12:45Z</time>
      </trkpt>
      <trkpt lat="32.6565" lon="-17.00451">
        <ele>588.945068</ele>
        <time>2013-05-02T13:12:56Z</time>
      </trkpt>
      <trkpt lat="32.65649" lon="-17.00451">
        <ele>588.945068</ele>
        <time>2013-05-02T13:13:07Z</time>
      </trkpt>
      <trkpt lat="32.6565" lon="-17.0045">
        <ele>588.464355</ele>
        <time>2013-05-02T13:13:11Z</time>
      </trkpt>
      <trkpt lat="32.65646" lon="-17.00445">
        <ele>588.464355</ele>
        <time>2013-05-02T13:13:32Z</time>
      </trkpt>
      <trkpt lat="32.65649" lon="-17.00447">
        <ele>588.464355</ele>
        <time>2013-05-02T13:13:40Z</time>
      </trkpt>
      <trkpt lat="32.65649" lon="-17.00449">
        <ele>587.983398</ele>
        <time>2013-05-02T13:13:45Z</time>
      </trkpt>
      <trkpt lat="32.65643" lon="-17.00448">
        <ele>587.502686</ele>
        <time>2013-05-02T13:13:57Z</time>
      </trkpt>
      <trkpt lat="32.65645" lon="-17.00447">
        <ele>587.502686</ele>
        <time>2013-05-02T13:14:05Z</time>
      </trkpt>
      <trkpt lat="32.65645" lon="-17.00441">
        <ele>587.502686</ele>
        <time>2013-05-02T13:14:23Z</time>
      </trkpt>
      <trkpt lat="32.6565" lon="-17.00439">
        <ele>587.983398</ele>
        <time>2013-05-02T13:14:43Z</time>
      </trkpt>
      <trkpt lat="32.6565" lon="-17.00437">
        <ele>587.983398</ele>
        <time>2013-05-02T13:15:00Z</time>
      </trkpt>
      <trkpt lat="32.65649" lon="-17.00438">
        <ele>587.983398</ele>
        <time>2013-05-02T13:15:34Z</time>
      </trkpt>
      <trkpt lat="32.65643" lon="-17.00444">
        <ele>588.464355</ele>
        <time>2013-05-02T13:15:50Z</time>
      </trkpt>
      <trkpt lat="32.65644" lon="-17.00442">
        <ele>587.983398</ele>
        <time>2013-05-02T13:16:33Z</time>
      </trkpt>
      <trkpt lat="32.65643" lon="-17.00443">
        <ele>587.502686</ele>
        <time>2013-05-02T13:17:01Z</time>
      </trkpt>
      <trkpt lat="32.65646" lon="-17.00443">
        <ele>587.983398</ele>
        <time>2013-05-02T13:17:19Z</time>
      </trkpt>
      <trkpt lat="32.6565" lon="-17.00441">
        <ele>589.425537</ele>
        <time>2013-05-02T13:17:26Z</time>
      </trkpt>
      <trkpt lat="32.65672" lon="-17.00451">
        <ele>589.90625</ele>
        <time>2013-05-02T13:17:48Z</time>
      </trkpt>
      <trkpt lat="32.6569" lon="-17.00466">
        <ele>590.867432</ele>
        <time>2013-05-02T13:18:09Z</time>
      </trkpt>
      <trkpt lat="32.657" lon="-17.0048">
        <ele>591.828857</ele>
        <time>2013-05-02T13:18:23Z</time>
      </trkpt>
      <trkpt lat="32.65704" lon="-17.00483">
        <ele>591.828857</ele>
        <time>2013-05-02T13:18:39Z</time>
      </trkpt>
      <trkpt lat="32.65698" lon="-17.00479">
        <ele>592.30957</ele>
        <time>2013-05-02T13:18:53Z</time>
      </trkpt>
      <trkpt lat="32.65696" lon="-17.00476">
        <ele>592.30957</ele>
        <time>2013-05-02T13:19:14Z</time>
      </trkpt>
      <trkpt lat="32.65696" lon="-17.00475">
        <ele>592.30957</ele>
        <time>2013-05-02T13:19:51Z</time>
      </trkpt>
      <trkpt lat="32.657" lon="-17.00483">
        <ele>593.270752</ele>
        <time>2013-05-02T13:20:19Z</time>
      </trkpt>
      <trkpt lat="32.65698" lon="-17.00495">
        <ele>594.232178</ele>
        <time>2013-05-02T13:20:35Z</time>
      </trkpt>
      <trkpt lat="32.65698" lon="-17.00497">
        <ele>594.232178</ele>
        <time>2013-05-02T13:20:55Z</time>
      </trkpt>
      <trkpt lat="32.65693" lon="-17.00499">
        <ele>594.712646</ele>
        <time>2013-05-02T13:21:13Z</time>
      </trkpt>
      <trkpt lat="32.65697" lon="-17.00501">
        <ele>594.232178</ele>
        <time>2013-05-02T13:21:33Z</time>
      </trkpt>
      <trkpt lat="32.65695" lon="-17.00503">
        <ele>594.712646</ele>
        <time>2013-05-02T13:21:46Z</time>
      </trkpt>
      <trkpt lat="32.65696" lon="-17.00515">
        <ele>595.674072</ele>
        <time>2013-05-02T13:22:02Z</time>
      </trkpt>
      <trkpt lat="32.65696" lon="-17.00521">
        <ele>596.154785</ele>
        <time>2013-05-02T13:22:19Z</time>
      </trkpt>
      <trkpt lat="32.65699" lon="-17.00523">
        <ele>596.635498</ele>
        <time>2013-05-02T13:22:23Z</time>
      </trkpt>
      <trkpt lat="32.65703" lon="-17.00528">
        <ele>596.635498</ele>
        <time>2013-05-02T13:22:28Z</time>
      </trkpt>
      <trkpt lat="32.65715" lon="-17.00541">
        <ele>597.115967</ele>
        <time>2013-05-02T13:22:48Z</time>
      </trkpt>
      <trkpt lat="32.65717" lon="-17.00537">
        <ele>596.635498</ele>
        <time>2013-05-02T13:23:07Z</time>
      </trkpt>
      <trkpt lat="32.65718" lon="-17.00535">
        <ele>597.115967</ele>
        <time>2013-05-02T13:23:09Z</time>
      </trkpt>
      <trkpt lat="32.65731" lon="-17.00503">
        <ele>597.115967</ele>
        <time>2013-05-02T13:23:33Z</time>
      </trkpt>
      <trkpt lat="32.65745" lon="-17.00471">
        <ele>597.115967</ele>
        <time>2013-05-02T13:23:58Z</time>
      </trkpt>
      <trkpt lat="32.65746" lon="-17.00457">
        <ele>595.193359</ele>
        <time>2013-05-02T13:24:16Z</time>
      </trkpt>
      <trkpt lat="32.65753" lon="-17.00451">
        <ele>592.30957</ele>
        <time>2013-05-02T13:24:29Z</time>
      </trkpt>
      <trkpt lat="32.65758" lon="-17.00449">
        <ele>591.348145</ele>
        <time>2013-05-02T13:24:42Z</time>
      </trkpt>
      <trkpt lat="32.65756" lon="-17.00442">
        <ele>591.828857</ele>
        <time>2013-05-02T13:24:54Z</time>
      </trkpt>
      <trkpt lat="32.65758" lon="-17.00443">
        <ele>590.867432</ele>
        <time>2013-05-02T13:25:00Z</time>
      </trkpt>
      <trkpt lat="32.65767" lon="-17.00445">
        <ele>590.386963</ele>
        <time>2013-05-02T13:25:08Z</time>
      </trkpt>
      <trkpt lat="32.65776" lon="-17.0044">
        <ele>587.502686</ele>
        <time>2013-05-02T13:25:17Z</time>
      </trkpt>
      <trkpt lat="32.6579" lon="-17.0043">
        <ele>584.618896</ele>
        <time>2013-05-02T13:25:33Z</time>
      </trkpt>
      <trkpt lat="32.65803" lon="-17.00417">
        <ele>581.254395</ele>
        <time>2013-05-02T13:25:48Z</time>
      </trkpt>
      <trkpt lat="32.65813" lon="-17.00393">
        <ele>578.370361</ele>
        <time>2013-05-02T13:26:09Z</time>
      </trkpt>
      <trkpt lat="32.6582" lon="-17.00376">
        <ele>575.005859</ele>
        <time>2013-05-02T13:26:23Z</time>
      </trkpt>
      <trkpt lat="32.65833" lon="-17.00344">
        <ele>573.083252</ele>
        <time>2013-05-02T13:26:47Z</time>
      </trkpt>
      <trkpt lat="32.65834" lon="-17.00341">
        <ele>572.602539</ele>
        <time>2013-05-02T13:26:49Z</time>
      </trkpt>
      <trkpt lat="32.65834" lon="-17.00327">
        <ele>572.602539</ele>
        <time>2013-05-02T13:26:58Z</time>
      </trkpt>
      <trkpt lat="32.65833" lon="-17.00311">
        <ele>572.121826</ele>
        <time>2013-05-02T13:27:08Z</time>
      </trkpt>
      <trkpt lat="32.65823" lon="-17.0029">
        <ele>568.276367</ele>
        <time>2013-05-02T13:27:24Z</time>
      </trkpt>
      <trkpt lat="32.65804" lon="-17.00264">
        <ele>568.276367</ele>
        <time>2013-05-02T13:27:46Z</time>
      </trkpt>
      <trkpt lat="32.65797" lon="-17.00259">
        <ele>565.873291</ele>
        <time>2013-05-02T13:27:54Z</time>
      </trkpt>
      <trkpt lat="32.65796" lon="-17.00257">
        <ele>566.834473</ele>
        <time>2013-05-02T13:28:01Z</time>
      </trkpt>
      <trkpt lat="32.65781" lon="-17.00227">
        <ele>563.950439</ele>
        <time>2013-05-02T13:28:26Z</time>
      </trkpt>
      <trkpt lat="32.65781" lon="-17.00226">
        <ele>563.950439</ele>
        <time>2013-05-02T13:28:27Z</time>
      </trkpt>
      <trkpt lat="32.65779" lon="-17.0022">
        <ele>562.989258</ele>
        <time>2013-05-02T13:28:32Z</time>
      </trkpt>
      <trkpt lat="32.65779" lon="-17.00192">
        <ele>559.144043</ele>
        <time>2013-05-02T13:28:51Z</time>
      </trkpt>
      <trkpt lat="32.65778" lon="-17.00179">
        <ele>557.702148</ele>
        <time>2013-05-02T13:29:01Z</time>
      </trkpt>
      <trkpt lat="32.65772" lon="-17.00164">
        <ele>556.740723</ele>
        <time>2013-05-02T13:29:16Z</time>
      </trkpt>
      <trkpt lat="32.6577" lon="-17.00166">
        <ele>555.779297</ele>
        <time>2013-05-02T13:29:47Z</time>
      </trkpt>
      <trkpt lat="32.65766" lon="-17.00167">
        <ele>555.298584</ele>
        <time>2013-05-02T13:29:53Z</time>
      </trkpt>
      <trkpt lat="32.65763" lon="-17.00174">
        <ele>554.337402</ele>
        <time>2013-05-02T13:30:02Z</time>
      </trkpt>
      <trkpt lat="32.65763" lon="-17.00174">
        <ele>555.298584</ele>
        <time>2013-05-02T13:30:10Z</time>
      </trkpt>
      <trkpt lat="32.65769" lon="-17.00172">
        <ele>554.817871</ele>
        <time>2013-05-02T13:30:17Z</time>
      </trkpt>
      <trkpt lat="32.65771" lon="-17.00169">
        <ele>555.779297</ele>
        <time>2013-05-02T13:30:21Z</time>
      </trkpt>
      <trkpt lat="32.6578" lon="-17.00161">
        <ele>558.182861</ele>
        <time>2013-05-02T13:30:35Z</time>
      </trkpt>
      <trkpt lat="32.65777" lon="-17.00164">
        <ele>557.221436</ele>
        <time>2013-05-02T13:30:39Z</time>
      </trkpt>
      <trkpt lat="32.65772" lon="-17.0016">
        <ele>554.337402</ele>
        <time>2013-05-02T13:30:52Z</time>
      </trkpt>
      <trkpt lat="32.65774" lon="-17.00153">
        <ele>550.972656</ele>
        <time>2013-05-02T13:31:02Z</time>
      </trkpt>
      <trkpt lat="32.65773" lon="-17.00146">
        <ele>548.088867</ele>
        <time>2013-05-02T13:31:14Z</time>
      </trkpt>
      <trkpt lat="32.65772" lon="-17.00145">
        <ele>548.088867</ele>
        <time>2013-05-02T13:31:15Z</time>
      </trkpt>
      <trkpt lat="32.65763" lon="-17.0014">
        <ele>545.204834</ele>
        <time>2013-05-02T13:31:29Z</time>
      </trkpt>
      <trkpt lat="32.65762" lon="-17.0014">
        <ele>543.762817</ele>
        <time>2013-05-02T13:31:31Z</time>
      </trkpt>
      <trkpt lat="32.65759" lon="-17.00138">
        <ele>543.282104</ele>
        <time>2013-05-02T13:31:35Z</time>
      </trkpt>
      <trkpt lat="32.65754" lon="-17.00135">
        <ele>541.359497</ele>
        <time>2013-05-02T13:31:42Z</time>
      </trkpt>
      <trkpt lat="32.65753" lon="-17.00134">
        <ele>540.878906</ele>
        <time>2013-05-02T13:31:47Z</time>
      </trkpt>
      <trkpt lat="32.65754" lon="-17.00134">
        <ele>541.359497</ele>
        <time>2013-05-02T13:32:04Z</time>
      </trkpt>
      <trkpt lat="32.65749" lon="-17.00132">
        <ele>537.994995</ele>
        <time>2013-05-02T13:32:25Z</time>
      </trkpt>
      <trkpt lat="32.65744" lon="-17.00128">
        <ele>537.033691</ele>
        <time>2013-05-02T13:32:42Z</time>
      </trkpt>
      <trkpt lat="32.65737" lon="-17.00122">
        <ele>535.110962</ele>
        <time>2013-05-02T13:32:51Z</time>
      </trkpt>
      <trkpt lat="32.65731" lon="-17.00121">
        <ele>531.746338</ele>
        <time>2013-05-02T13:32:59Z</time>
      </trkpt>
      <trkpt lat="32.65726" lon="-17.00124">
        <ele>530.304443</ele>
        <time>2013-05-02T13:33:09Z</time>
      </trkpt>
      <trkpt lat="32.65719" lon="-17.00114">
        <ele>528.862549</ele>
        <time>2013-05-02T13:33:22Z</time>
      </trkpt>
      <trkpt lat="32.65711" lon="-17.00108">
        <ele>526.459106</ele>
        <time>2013-05-02T13:33:34Z</time>
      </trkpt>
      <trkpt lat="32.65704" lon="-17.00104">
        <ele>525.978394</ele>
        <time>2013-05-02T13:33:42Z</time>
      </trkpt>
      <trkpt lat="32.65702" lon="-17.00098">
        <ele>525.497803</ele>
        <time>2013-05-02T13:33:48Z</time>
      </trkpt>
      <trkpt lat="32.65691" lon="-17.00094">
        <ele>524.536499</ele>
        <time>2013-05-02T13:33:57Z</time>
      </trkpt>
      <trkpt lat="32.65682" lon="-17.00092">
        <ele>524.536499</ele>
        <time>2013-05-02T13:34:06Z</time>
      </trkpt>
      <trkpt lat="32.6567" lon="-17.00087">
        <ele>525.017212</ele>
        <time>2013-05-02T13:34:19Z</time>
      </trkpt>
      <trkpt lat="32.65667" lon="-17.00087">
        <ele>521.652588</ele>
        <time>2013-05-02T13:34:26Z</time>
      </trkpt>
      <trkpt lat="32.65659" lon="-17.00087">
        <ele>519.249268</ele>
        <time>2013-05-02T13:34:40Z</time>
      </trkpt>
      <trkpt lat="32.6566" lon="-17.00088">
        <ele>518.768555</ele>
        <time>2013-05-02T13:34:55Z</time>
      </trkpt>
      <trkpt lat="32.65653" lon="-17.00085">
        <ele>516.365234</ele>
        <time>2013-05-02T13:35:17Z</time>
      </trkpt>
      <trkpt lat="32.65648" lon="-17.00084">
        <ele>515.404053</ele>
        <time>2013-05-02T13:35:23Z</time>
      </trkpt>
      <trkpt lat="32.65638" lon="-17.00081">
        <ele>512.52002</ele>
        <time>2013-05-02T13:35:39Z</time>
      </trkpt>
      <trkpt lat="32.65638" lon="-17.00085">
        <ele>510.116699</ele>
        <time>2013-05-02T13:35:49Z</time>
      </trkpt>
      <trkpt lat="32.65631" lon="-17.00078">
        <ele>509.636108</ele>
        <time>2013-05-02T13:35:58Z</time>
      </trkpt>
      <trkpt lat="32.65626" lon="-17.0005">
        <ele>506.752075</ele>
        <time>2013-05-02T13:36:19Z</time>
      </trkpt>
      <trkpt lat="32.6562" lon="-17.00024">
        <ele>503.387451</ele>
        <time>2013-05-02T13:36:38Z</time>
      </trkpt>
      <trkpt lat="32.65611" lon="-17.00005">
        <ele>500.50354</ele>
        <time>2013-05-02T13:36:53Z</time>
      </trkpt>
      <trkpt lat="32.65595" lon="-16.99984">
        <ele>499.542236</ele>
        <time>2013-05-02T13:37:12Z</time>
      </trkpt>
      <trkpt lat="32.65585" lon="-16.99973">
        <ele>500.022949</ele>
        <time>2013-05-02T13:37:28Z</time>
      </trkpt>
      <trkpt lat="32.65578" lon="-16.99961">
        <ele>499.061523</ele>
        <time>2013-05-02T13:37:45Z</time>
      </trkpt>
      <trkpt lat="32.65577" lon="-16.99945">
        <ele>498.580933</ele>
        <time>2013-05-02T13:37:59Z</time>
      </trkpt>
      <trkpt lat="32.65581" lon="-16.99934">
        <ele>497.619629</ele>
        <time>2013-05-02T13:38:17Z</time>
      </trkpt>
      <trkpt lat="32.65582" lon="-16.99931">
        <ele>495.696899</ele>
        <time>2013-05-02T13:38:26Z</time>
      </trkpt>
      <trkpt lat="32.65584" lon="-16.99929">
        <ele>493.774292</ele>
        <time>2013-05-02T13:38:31Z</time>
      </trkpt>
      <trkpt lat="32.65585" lon="-16.99925">
        <ele>490.890381</ele>
        <time>2013-05-02T13:38:41Z</time>
      </trkpt>
      <trkpt lat="32.65585" lon="-16.9992">
        <ele>487.525635</ele>
        <time>2013-05-02T13:38:51Z</time>
      </trkpt>
      <trkpt lat="32.65591" lon="-16.99919">
        <ele>485.603027</ele>
        <time>2013-05-02T13:39:06Z</time>
      </trkpt>
      <trkpt lat="32.65592" lon="-16.99918">
        <ele>482.238525</ele>
        <time>2013-05-02T13:39:18Z</time>
      </trkpt>
      <trkpt lat="32.65595" lon="-16.99918">
        <ele>481.277222</ele>
        <time>2013-05-02T13:39:24Z</time>
      </trkpt>
      <trkpt lat="32.65591" lon="-16.99911">
        <ele>480.315918</ele>
        <time>2013-05-02T13:39:37Z</time>
      </trkpt>
      <trkpt lat="32.6559" lon="-16.99905">
        <ele>478.873901</ele>
        <time>2013-05-02T13:39:52Z</time>
      </trkpt>
      <trkpt lat="32.65588" lon="-16.99901">
        <ele>477.431885</ele>
        <time>2013-05-02T13:40:08Z</time>
      </trkpt>
      <trkpt lat="32.65585" lon="-16.99899">
        <ele>476.470581</ele>
        <time>2013-05-02T13:40:25Z</time>
      </trkpt>
      <trkpt lat="32.65584" lon="-16.99897">
        <ele>475.028687</ele>
        <time>2013-05-02T13:40:49Z</time>
      </trkpt>
      <trkpt lat="32.65578" lon="-16.99895">
        <ele>471.66394</ele>
        <time>2013-05-02T13:41:02Z</time>
      </trkpt>
      <trkpt lat="32.65574" lon="-16.99892">
        <ele>468.780029</ele>
        <time>2013-05-02T13:41:16Z</time>
      </trkpt>
      <trkpt lat="32.65572" lon="-16.99891">
        <ele>468.299316</ele>
        <time>2013-05-02T13:41:40Z</time>
      </trkpt>
      <trkpt lat="32.65566" lon="-16.99885">
        <ele>466.376709</ele>
        <time>2013-05-02T13:41:56Z</time>
      </trkpt>
      <trkpt lat="32.6556" lon="-16.99881">
        <ele>463.012085</ele>
        <time>2013-05-02T13:42:08Z</time>
      </trkpt>
      <trkpt lat="32.65556" lon="-16.99878">
        <ele>462.050781</ele>
        <time>2013-05-02T13:42:24Z</time>
      </trkpt>
      <trkpt lat="32.65555" lon="-16.99878">
        <ele>461.57019</ele>
        <time>2013-05-02T13:42:26Z</time>
      </trkpt>
      <trkpt lat="32.65543" lon="-16.99869">
        <ele>458.686157</ele>
        <time>2013-05-02T13:42:41Z</time>
      </trkpt>
      <trkpt lat="32.65535" lon="-16.99862">
        <ele>455.802246</ele>
        <time>2013-05-02T13:42:54Z</time>
      </trkpt>
      <trkpt lat="32.65525" lon="-16.99854">
        <ele>453.398926</ele>
        <time>2013-05-02T13:43:09Z</time>
      </trkpt>
      <trkpt lat="32.65524" lon="-16.99853">
        <ele>451.957031</ele>
        <time>2013-05-02T13:43:12Z</time>
      </trkpt>
      <trkpt lat="32.65518" lon="-16.99849">
        <ele>450.995605</ele>
        <time>2013-05-02T13:43:19Z</time>
      </trkpt>
      <trkpt lat="32.65507" lon="-16.99841">
        <ele>447.150269</ele>
        <time>2013-05-02T13:43:37Z</time>
      </trkpt>
      <trkpt lat="32.65502" lon="-16.99834">
        <ele>444.74707</ele>
        <time>2013-05-02T13:43:54Z</time>
      </trkpt>
      <trkpt lat="32.65495" lon="-16.99823">
        <ele>441.382446</ele>
        <time>2013-05-02T13:44:11Z</time>
      </trkpt>
      <trkpt lat="32.65494" lon="-16.99821">
        <ele>440.901855</ele>
        <time>2013-05-02T13:44:13Z</time>
      </trkpt>
      <trkpt lat="32.65494" lon="-16.99821">
        <ele>439.94043</ele>
        <time>2013-05-02T13:44:14Z</time>
      </trkpt>
      <trkpt lat="32.65489" lon="-16.99811">
        <ele>438.498535</ele>
        <time>2013-05-02T13:44:25Z</time>
      </trkpt>
      <trkpt lat="32.65485" lon="-16.998">
        <ele>436.095215</ele>
        <time>2013-05-02T13:44:37Z</time>
      </trkpt>
      <trkpt lat="32.65484" lon="-16.99793">
        <ele>434.65332</ele>
        <time>2013-05-02T13:44:50Z</time>
      </trkpt>
      <trkpt lat="32.65483" lon="-16.99779">
        <ele>432.25</ele>
        <time>2013-05-02T13:45:08Z</time>
      </trkpt>
      <trkpt lat="32.6548" lon="-16.99766">
        <ele>429.365967</ele>
        <time>2013-05-02T13:45:24Z</time>
      </trkpt>
      <trkpt lat="32.65478" lon="-16.99752">
        <ele>426.001343</ele>
        <time>2013-05-02T13:45:43Z</time>
      </trkpt>
      <trkpt lat="32.65476" lon="-16.99746">
        <ele>423.598022</ele>
        <time>2013-05-02T13:45:53Z</time>
      </trkpt>
      <trkpt lat="32.65474" lon="-16.99737">
        <ele>420.714111</ele>
        <time>2013-05-02T13:46:06Z</time>
      </trkpt>
      <trkpt lat="32.65474" lon="-16.99731">
        <ele>418.310791</ele>
        <time>2013-05-02T13:46:13Z</time>
      </trkpt>
      <trkpt lat="32.65473" lon="-16.99717">
        <ele>414.946167</ele>
        <time>2013-05-02T13:46:31Z</time>
      </trkpt>
      <trkpt lat="32.65476" lon="-16.99706">
        <ele>413.02356</ele>
        <time>2013-05-02T13:46:42Z</time>
      </trkpt>
      <trkpt lat="32.65481" lon="-16.99694">
        <ele>410.139648</ele>
        <time>2013-05-02T13:46:57Z</time>
      </trkpt>
      <trkpt lat="32.65487" lon="-16.99698">
        <ele>407.736328</ele>
        <time>2013-05-02T13:47:13Z</time>
      </trkpt>
      <trkpt lat="32.65493" lon="-16.99707">
        <ele>404.371704</ele>
        <time>2013-05-02T13:47:30Z</time>
      </trkpt>
      <trkpt lat="32.65499" lon="-16.99716">
        <ele>401.487793</ele>
        <time>2013-05-02T13:47:42Z</time>
      </trkpt>
      <trkpt lat="32.65503" lon="-16.99725">
        <ele>399.084351</ele>
        <time>2013-05-02T13:47:57Z</time>
      </trkpt>
      <trkpt lat="32.65504" lon="-16.99722">
        <ele>397.161743</ele>
        <time>2013-05-02T13:48:02Z</time>
      </trkpt>
      <trkpt lat="32.65508" lon="-16.9971">
        <ele>394.277954</ele>
        <time>2013-05-02T13:48:19Z</time>
      </trkpt>
      <trkpt lat="32.65511" lon="-16.99703">
        <ele>391.393799</ele>
        <time>2013-05-02T13:48:28Z</time>
      </trkpt>
      <trkpt lat="32.65514" lon="-16.99697">
        <ele>388.990601</ele>
        <time>2013-05-02T13:48:36Z</time>
      </trkpt>
      <trkpt lat="32.65521" lon="-16.99686">
        <ele>386.106689</ele>
        <time>2013-05-02T13:48:51Z</time>
      </trkpt>
      <trkpt lat="32.65525" lon="-16.9968">
        <ele>383.222656</ele>
        <time>2013-05-02T13:49:01Z</time>
      </trkpt>
      <trkpt lat="32.6553" lon="-16.99672">
        <ele>381.300049</ele>
        <time>2013-05-02T13:49:14Z</time>
      </trkpt>
      <trkpt lat="32.65535" lon="-16.99655">
        <ele>378.896851</ele>
        <time>2013-05-02T13:49:30Z</time>
      </trkpt>
      <trkpt lat="32.65538" lon="-16.99633">
        <ele>375.051514</ele>
        <time>2013-05-02T13:49:49Z</time>
      </trkpt>
      <trkpt lat="32.65536" lon="-16.99618">
        <ele>371.68689</ele>
        <time>2013-05-02T13:50:06Z</time>
      </trkpt>
      <trkpt lat="32.65536" lon="-16.99617">
        <ele>370.725586</ele>
        <time>2013-05-02T13:50:08Z</time>
      </trkpt>
      <trkpt lat="32.65535" lon="-16.99613">
        <ele>369.283691</ele>
        <time>2013-05-02T13:50:14Z</time>
      </trkpt>
      <trkpt lat="32.65536" lon="-16.99607">
        <ele>366.880249</ele>
        <time>2013-05-02T13:50:30Z</time>
      </trkpt>
      <trkpt lat="32.65533" lon="-16.99597">
        <ele>364.957642</ele>
        <time>2013-05-02T13:50:46Z</time>
      </trkpt>
      <trkpt lat="32.65528" lon="-16.99589">
        <ele>363.035034</ele>
        <time>2013-05-02T13:50:56Z</time>
      </trkpt>
      <trkpt lat="32.65518" lon="-16.99571">
        <ele>359.67041</ele>
        <time>2013-05-02T13:51:14Z</time>
      </trkpt>
      <trkpt lat="32.65519" lon="-16.99564">
        <ele>356.786377</ele>
        <time>2013-05-02T13:51:27Z</time>
      </trkpt>
      <trkpt lat="32.65521" lon="-16.99563">
        <ele>355.825195</ele>
        <time>2013-05-02T13:51:31Z</time>
      </trkpt>
      <trkpt lat="32.65518" lon="-16.9954">
        <ele>355.825195</ele>
        <time>2013-05-02T13:51:49Z</time>
      </trkpt>
      <trkpt lat="32.65517" lon="-16.99515">
        <ele>356.305786</ele>
        <time>2013-05-02T13:52:05Z</time>
      </trkpt>
      <trkpt lat="32.65509" lon="-16.99479">
        <ele>356.786377</ele>
        <time>2013-05-02T13:52:29Z</time>
      </trkpt>
      <trkpt lat="32.655" lon="-16.99447">
        <ele>354.383179</ele>
        <time>2013-05-02T13:52:50Z</time>
      </trkpt>
      <trkpt lat="32.65494" lon="-16.99419">
        <ele>353.902588</ele>
        <time>2013-05-02T13:53:08Z</time>
      </trkpt>
      <trkpt lat="32.65485" lon="-16.99385">
        <ele>353.421875</ele>
        <time>2013-05-02T13:53:30Z</time>
      </trkpt>
      <trkpt lat="32.65483" lon="-16.99364">
        <ele>351.979858</ele>
        <time>2013-05-02T13:53:45Z</time>
      </trkpt>
      <trkpt lat="32.65491" lon="-16.99339">
        <ele>350.057251</ele>
        <time>2013-05-02T13:54:03Z</time>
      </trkpt>
      <trkpt lat="32.65495" lon="-16.99324">
        <ele>347.173218</ele>
        <time>2013-05-02T13:54:16Z</time>
      </trkpt>
      <trkpt lat="32.65493" lon="-16.9932">
        <ele>346.212036</ele>
        <time>2013-05-02T13:54:20Z</time>
      </trkpt>
      <trkpt lat="32.65491" lon="-16.99315">
        <ele>343.327881</ele>
        <time>2013-05-02T13:54:27Z</time>
      </trkpt>
      <trkpt lat="32.65493" lon="-16.993">
        <ele>339.963379</ele>
        <time>2013-05-02T13:54:42Z</time>
      </trkpt>
      <trkpt lat="32.65496" lon="-16.99289">
        <ele>338.040771</ele>
        <time>2013-05-02T13:55:00Z</time>
      </trkpt>
      <trkpt lat="32.65491" lon="-16.99285">
        <ele>335.637329</ele>
        <time>2013-05-02T13:55:15Z</time>
      </trkpt>
      <trkpt lat="32.65481" lon="-16.99284">
        <ele>333.234131</ele>
        <time>2013-05-02T13:55:28Z</time>
      </trkpt>
      <trkpt lat="32.65471" lon="-16.99284">
        <ele>329.869507</ele>
        <time>2013-05-02T13:55:44Z</time>
      </trkpt>
      <trkpt lat="32.6547" lon="-16.99284">
        <ele>329.388916</ele>
        <time>2013-05-02T13:55:45Z</time>
      </trkpt>
      <trkpt lat="32.65462" lon="-16.99285">
        <ele>326.504883</ele>
        <time>2013-05-02T13:55:59Z</time>
      </trkpt>
      <trkpt lat="32.65456" lon="-16.99282">
        <ele>322.659668</ele>
        <time>2013-05-02T13:56:13Z</time>
      </trkpt>
      <trkpt lat="32.65455" lon="-16.99268">
        <ele>319.295044</ele>
        <time>2013-05-02T13:56:31Z</time>
      </trkpt>
      <trkpt lat="32.65455" lon="-16.99267">
        <ele>318.333618</ele>
        <time>2013-05-02T13:56:33Z</time>
      </trkpt>
      <trkpt lat="32.6545" lon="-16.99263">
        <ele>316.411011</ele>
        <time>2013-05-02T13:56:44Z</time>
      </trkpt>
      <trkpt lat="32.65443" lon="-16.99264">
        <ele>314.969116</ele>
        <time>2013-05-02T13:56:57Z</time>
      </trkpt>
      <trkpt lat="32.65441" lon="-16.99265">
        <ele>313.046509</ele>
        <time>2013-05-02T13:57:02Z</time>
      </trkpt>
      <trkpt lat="32.65432" lon="-16.99265">
        <ele>309.681885</ele>
        <time>2013-05-02T13:57:13Z</time>
      </trkpt>
      <trkpt lat="32.65421" lon="-16.99267">
        <ele>307.278564</ele>
        <time>2013-05-02T13:57:33Z</time>
      </trkpt>
      <trkpt lat="32.65414" lon="-16.99267">
        <ele>303.91394</ele>
        <time>2013-05-02T13:57:45Z</time>
      </trkpt>
      <trkpt lat="32.65407" lon="-16.99265">
        <ele>301.029907</ele>
        <time>2013-05-02T13:57:57Z</time>
      </trkpt>
      <trkpt lat="32.65406" lon="-16.99262">
        <ele>298.626709</ele>
        <time>2013-05-02T13:58:05Z</time>
      </trkpt>
      <trkpt lat="32.65406" lon="-16.99257">
        <ele>297.184692</ele>
        <time>2013-05-02T13:58:23Z</time>
      </trkpt>
      <trkpt lat="32.65407" lon="-16.99247">
        <ele>295.742676</ele>
        <time>2013-05-02T13:58:40Z</time>
      </trkpt>
      <trkpt lat="32.65409" lon="-16.99238">
        <ele>293.820068</ele>
        <time>2013-05-02T13:58:59Z</time>
      </trkpt>
      <trkpt lat="32.65402" lon="-16.99233">
        <ele>290.455566</ele>
        <time>2013-05-02T13:59:24Z</time>
      </trkpt>
      <trkpt lat="32.654" lon="-16.99232">
        <ele>288.052246</ele>
        <time>2013-05-02T13:59:30Z</time>
      </trkpt>
      <trkpt lat="32.65396" lon="-16.9923">
        <ele>287.09082</ele>
        <time>2013-05-02T13:59:36Z</time>
      </trkpt>
      <trkpt lat="32.65389" lon="-16.99224">
        <ele>283.726196</ele>
        <time>2013-05-02T13:59:51Z</time>
      </trkpt>
      <trkpt lat="32.65385" lon="-16.9922">
        <ele>280.842407</ele>
        <time>2013-05-02T14:00:06Z</time>
      </trkpt>
      <trkpt lat="32.65384" lon="-16.99217">
        <ele>277.958252</ele>
        <time>2013-05-02T14:00:15Z</time>
      </trkpt>
      <trkpt lat="32.65378" lon="-16.9921">
        <ele>277.477661</ele>
        <time>2013-05-02T14:00:31Z</time>
      </trkpt>
      <trkpt lat="32.65374" lon="-16.99207">
        <ele>273.632446</ele>
        <time>2013-05-02T14:00:40Z</time>
      </trkpt>
      <trkpt lat="32.65374" lon="-16.99206">
        <ele>274.113037</ele>
        <time>2013-05-02T14:00:41Z</time>
      </trkpt>
      <trkpt lat="32.65372" lon="-16.99205">
        <ele>272.19043</ele>
        <time>2013-05-02T14:00:45Z</time>
      </trkpt>
      <trkpt lat="32.65366" lon="-16.99199">
        <ele>270.2677</ele>
        <time>2013-05-02T14:01:01Z</time>
      </trkpt>
      <trkpt lat="32.65362" lon="-16.99192">
        <ele>267.383911</ele>
        <time>2013-05-02T14:01:18Z</time>
      </trkpt>
      <trkpt lat="32.65359" lon="-16.9919">
        <ele>265.461304</ele>
        <time>2013-05-02T14:01:25Z</time>
      </trkpt>
      <trkpt lat="32.65356" lon="-16.99186">
        <ele>263.057861</ele>
        <time>2013-05-02T14:01:37Z</time>
      </trkpt>
      <trkpt lat="32.65351" lon="-16.99183">
        <ele>261.615967</ele>
        <time>2013-05-02T14:01:53Z</time>
      </trkpt>
      <trkpt lat="32.65351" lon="-16.99183">
        <ele>260.17395</ele>
        <time>2013-05-02T14:01:56Z</time>
      </trkpt>
      <trkpt lat="32.65345" lon="-16.99175">
        <ele>257.290039</ele>
        <time>2013-05-02T14:02:17Z</time>
      </trkpt>
      <trkpt lat="32.65342" lon="-16.99167">
        <ele>254.406006</ele>
        <time>2013-05-02T14:02:34Z</time>
      </trkpt>
      <trkpt lat="32.65339" lon="-16.9916">
        <ele>251.041382</ele>
        <time>2013-05-02T14:02:50Z</time>
      </trkpt>
      <trkpt lat="32.65336" lon="-16.9915">
        <ele>247.676758</ele>
        <time>2013-05-02T14:03:07Z</time>
      </trkpt>
      <trkpt lat="32.65333" lon="-16.99148">
        <ele>246.234863</ele>
        <time>2013-05-02T14:03:15Z</time>
      </trkpt>
      <trkpt lat="32.65331" lon="-16.99146">
        <ele>245.273438</ele>
        <time>2013-05-02T14:03:19Z</time>
      </trkpt>
      <trkpt lat="32.65329" lon="-16.99142">
        <ele>244.792847</ele>
        <time>2013-05-02T14:03:23Z</time>
      </trkpt>
      <trkpt lat="32.65332" lon="-16.99123">
        <ele>243.35083</ele>
        <time>2013-05-02T14:03:41Z</time>
      </trkpt>
      <trkpt lat="32.65334" lon="-16.991">
        <ele>240.947632</ele>
        <time>2013-05-02T14:04:00Z</time>
      </trkpt>
      <trkpt lat="32.65337" lon="-16.9907">
        <ele>239.024902</ele>
        <time>2013-05-02T14:04:22Z</time>
      </trkpt>
      <trkpt lat="32.65343" lon="-16.99044">
        <ele>235.660278</ele>
        <time>2013-05-02T14:04:42Z</time>
      </trkpt>
      <trkpt lat="32.65344" lon="-16.99036">
        <ele>235.179688</ele>
        <time>2013-05-02T14:04:55Z</time>
      </trkpt>
      <trkpt lat="32.6534" lon="-16.99032">
        <ele>231.814941</ele>
        <time>2013-05-02T14:05:10Z</time>
      </trkpt>
      <trkpt lat="32.65335" lon="-16.99027">
        <ele>227.969727</ele>
        <time>2013-05-02T14:05:23Z</time>
      </trkpt>
      <trkpt lat="32.65329" lon="-16.99022">
        <ele>225.085938</ele>
        <time>2013-05-02T14:05:37Z</time>
      </trkpt>
      <trkpt lat="32.65323" lon="-16.99012">
        <ele>223.163208</ele>
        <time>2013-05-02T14:05:53Z</time>
      </trkpt>
      <trkpt lat="32.65326" lon="-16.99002">
        <ele>222.201782</ele>
        <time>2013-05-02T14:06:10Z</time>
      </trkpt>
      <trkpt lat="32.65333" lon="-16.98989">
        <ele>221.240601</ele>
        <time>2013-05-02T14:06:24Z</time>
      </trkpt>
      <trkpt lat="32.65337" lon="-16.98979">
        <ele>219.798584</ele>
        <time>2013-05-02T14:06:33Z</time>
      </trkpt>
      <trkpt lat="32.6535" lon="-16.98971">
        <ele>218.83728</ele>
        <time>2013-05-02T14:06:43Z</time>
      </trkpt>
      <trkpt lat="32.65357" lon="-16.98962">
        <ele>215.953247</ele>
        <time>2013-05-02T14:06:59Z</time>
      </trkpt>
      <trkpt lat="32.65358" lon="-16.98949">
        <ele>214.03064</ele>
        <time>2013-05-02T14:07:12Z</time>
      </trkpt>
      <trkpt lat="32.65359" lon="-16.98944">
        <ele>213.069336</ele>
        <time>2013-05-02T14:07:26Z</time>
      </trkpt>
      <trkpt lat="32.65359" lon="-16.98936">
        <ele>210.185425</ele>
        <time>2013-05-02T14:07:35Z</time>
      </trkpt>
      <trkpt lat="32.65355" lon="-16.98927">
        <ele>206.820679</ele>
        <time>2013-05-02T14:07:49Z</time>
      </trkpt>
      <trkpt lat="32.65353" lon="-16.98925">
        <ele>205.378784</ele>
        <time>2013-05-02T14:07:57Z</time>
      </trkpt>
      <trkpt lat="32.65349" lon="-16.98917">
        <ele>203.456177</ele>
        <time>2013-05-02T14:08:15Z</time>
      </trkpt>
      <trkpt lat="32.65348" lon="-16.98912">
        <ele>201.533569</ele>
        <time>2013-05-02T14:08:33Z</time>
      </trkpt>
      <trkpt lat="32.65349" lon="-16.98909">
        <ele>200.091675</ele>
        <time>2013-05-02T14:08:48Z</time>
      </trkpt>
      <trkpt lat="32.65353" lon="-16.98908">
        <ele>198.649536</ele>
        <time>2013-05-02T14:09:03Z</time>
      </trkpt>
      <trkpt lat="32.65361" lon="-16.98904">
        <ele>197.688232</ele>
        <time>2013-05-02T14:09:19Z</time>
      </trkpt>
      <trkpt lat="32.65365" lon="-16.98902">
        <ele>195.284912</ele>
        <time>2013-05-02T14:09:28Z</time>
      </trkpt>
      <trkpt lat="32.65378" lon="-16.98892">
        <ele>192.401123</ele>
        <time>2013-05-02T14:09:43Z</time>
      </trkpt>
      <trkpt lat="32.65384" lon="-16.98878">
        <ele>190.478394</ele>
        <time>2013-05-02T14:09:59Z</time>
      </trkpt>
      <trkpt lat="32.65386" lon="-16.98871">
        <ele>189.997681</ele>
        <time>2013-05-02T14:10:05Z</time>
      </trkpt>
      <trkpt lat="32.65387" lon="-16.98867">
        <ele>188.555786</ele>
        <time>2013-05-02T14:10:10Z</time>
      </trkpt>
      <trkpt lat="32.65393" lon="-16.98851">
        <ele>185.671753</ele>
        <time>2013-05-02T14:10:25Z</time>
      </trkpt>
      <trkpt lat="32.65399" lon="-16.98832">
        <ele>182.787842</ele>
        <time>2013-05-02T14:10:43Z</time>
      </trkpt>
      <trkpt lat="32.654" lon="-16.98819">
        <ele>178.461914</ele>
        <time>2013-05-02T14:10:55Z</time>
      </trkpt>
      <trkpt lat="32.65397" lon="-16.98805">
        <ele>177.02002</ele>
        <time>2013-05-02T14:11:12Z</time>
      </trkpt>
      <trkpt lat="32.65395" lon="-16.98794">
        <ele>173.174683</ele>
        <time>2013-05-02T14:11:26Z</time>
      </trkpt>
      <trkpt lat="32.6539" lon="-16.98775">
        <ele>170.290649</ele>
        <time>2013-05-02T14:11:48Z</time>
      </trkpt>
      <trkpt lat="32.65384" lon="-16.98764">
        <ele>166.926025</ele>
        <time>2013-05-02T14:12:02Z</time>
      </trkpt>
      <trkpt lat="32.65383" lon="-16.98763">
        <ele>166.926025</ele>
        <time>2013-05-02T14:12:03Z</time>
      </trkpt>
      <trkpt lat="32.65382" lon="-16.98758">
        <ele>167.406738</ele>
        <time>2013-05-02T14:12:11Z</time>
      </trkpt>
      <trkpt lat="32.65381" lon="-16.98743">
        <ele>165.003418</ele>
        <time>2013-05-02T14:12:24Z</time>
      </trkpt>
      <trkpt lat="32.65377" lon="-16.98726">
        <ele>162.600098</ele>
        <time>2013-05-02T14:12:41Z</time>
      </trkpt>
      <trkpt lat="32.65377" lon="-16.98726">
        <ele>162.600098</ele>
        <time>2013-05-02T14:12:42Z</time>
      </trkpt>
      <trkpt lat="32.65372" lon="-16.98717">
        <ele>159.716187</ele>
        <time>2013-05-02T14:12:51Z</time>
      </trkpt>
      <trkpt lat="32.65358" lon="-16.98703">
        <ele>157.312866</ele>
        <time>2013-05-02T14:13:12Z</time>
      </trkpt>
      <trkpt lat="32.65355" lon="-16.98699">
        <ele>156.832153</ele>
        <time>2013-05-02T14:13:23Z</time>
      </trkpt>
      <trkpt lat="32.65352" lon="-16.98693">
        <ele>154.428955</ele>
        <time>2013-05-02T14:13:31Z</time>
      </trkpt>
      <trkpt lat="32.65348" lon="-16.98677">
        <ele>150.583618</ele>
        <time>2013-05-02T14:13:45Z</time>
      </trkpt>
      <trkpt lat="32.65344" lon="-16.98666">
        <ele>149.141602</ele>
        <time>2013-05-02T14:13:57Z</time>
      </trkpt>
      <trkpt lat="32.65335" lon="-16.98652">
        <ele>145.7771</ele>
        <time>2013-05-02T14:14:09Z</time>
      </trkpt>
      <trkpt lat="32.65325" lon="-16.98642">
        <ele>141.931763</ele>
        <time>2013-05-02T14:14:19Z</time>
      </trkpt>
      <trkpt lat="32.65318" lon="-16.98636">
        <ele>140.009155</ele>
        <time>2013-05-02T14:14:25Z</time>
      </trkpt>
      <trkpt lat="32.65309" lon="-16.98627">
        <ele>138.086548</ele>
        <time>2013-05-02T14:14:34Z</time>
      </trkpt>
      <trkpt lat="32.65306" lon="-16.98625">
        <ele>137.125244</ele>
        <time>2013-05-02T14:14:37Z</time>
      </trkpt>
      <trkpt lat="32.653" lon="-16.98618">
        <ele>133.760498</ele>
        <time>2013-05-02T14:14:44Z</time>
      </trkpt>
      <trkpt lat="32.65287" lon="-16.98609">
        <ele>131.3573</ele>
        <time>2013-05-02T14:15:00Z</time>
      </trkpt>
      <trkpt lat="32.65277" lon="-16.98603">
        <ele>128.473389</ele>
        <time>2013-05-02T14:15:13Z</time>
      </trkpt>
      <trkpt lat="32.65272" lon="-16.98601">
        <ele>126.550659</ele>
        <time>2013-05-02T14:15:18Z</time>
      </trkpt>
      <trkpt lat="32.65266" lon="-16.98597">
        <ele>125.108765</ele>
        <time>2013-05-02T14:15:23Z</time>
      </trkpt>
      <trkpt lat="32.65252" lon="-16.98588">
        <ele>122.224731</ele>
        <time>2013-05-02T14:15:38Z</time>
      </trkpt>
      <trkpt lat="32.65245" lon="-16.98583">
        <ele>119.34082</ele>
        <time>2013-05-02T14:15:46Z</time>
      </trkpt>
      <trkpt lat="32.65231" lon="-16.98565">
        <ele>116.456787</ele>
        <time>2013-05-02T14:16:05Z</time>
      </trkpt>
      <trkpt lat="32.65231" lon="-16.98563">
        <ele>115.014893</ele>
        <time>2013-05-02T14:16:07Z</time>
      </trkpt>
      <trkpt lat="32.65224" lon="-16.98539">
        <ele>112.130981</ele>
        <time>2013-05-02T14:16:25Z</time>
      </trkpt>
      <trkpt lat="32.65219" lon="-16.98518">
        <ele>109.727661</ele>
        <time>2013-05-02T14:16:40Z</time>
      </trkpt>
      <trkpt lat="32.65213" lon="-16.98489">
        <ele>107.805054</ele>
        <time>2013-05-02T14:16:59Z</time>
      </trkpt>
      <trkpt lat="32.65211" lon="-16.98462">
        <ele>105.401733</ele>
        <time>2013-05-02T14:17:20Z</time>
      </trkpt>
      <trkpt lat="32.65208" lon="-16.9844">
        <ele>102.5177</ele>
        <time>2013-05-02T14:17:39Z</time>
      </trkpt>
      <trkpt lat="32.65208" lon="-16.98436">
        <ele>101.556396</ele>
        <time>2013-05-02T14:17:45Z</time>
      </trkpt>
      <trkpt lat="32.6521" lon="-16.9842">
        <ele>100.114502</ele>
        <time>2013-05-02T14:17:57Z</time>
      </trkpt>
      <trkpt lat="32.65213" lon="-16.98396">
        <ele>97.230469</ele>
        <time>2013-05-02T14:18:17Z</time>
      </trkpt>
      <trkpt lat="32.65214" lon="-16.98378">
        <ele>93.865845</ele>
        <time>2013-05-02T14:18:32Z</time>
      </trkpt>
      <trkpt lat="32.65217" lon="-16.98362">
        <ele>90.981934</ele>
        <time>2013-05-02T14:18:46Z</time>
      </trkpt>
      <trkpt lat="32.6522" lon="-16.98348">
        <ele>90.501343</ele>
        <time>2013-05-02T14:18:57Z</time>
      </trkpt>
      <trkpt lat="32.65223" lon="-16.98341">
        <ele>90.02063</ele>
        <time>2013-05-02T14:19:11Z</time>
      </trkpt>
      <trkpt lat="32.65224" lon="-16.98344">
        <ele>87.617188</ele>
        <time>2013-05-02T14:19:18Z</time>
      </trkpt>
      <trkpt lat="32.65226" lon="-16.98342">
        <ele>84.733398</ele>
        <time>2013-05-02T14:19:31Z</time>
      </trkpt>
      <trkpt lat="32.65229" lon="-16.98336">
        <ele>81.849365</ele>
        <time>2013-05-02T14:19:45Z</time>
      </trkpt>
      <trkpt lat="32.65229" lon="-16.98312">
        <ele>79.926636</ele>
        <time>2013-05-02T14:20:03Z</time>
      </trkpt>
      <trkpt lat="32.65229" lon="-16.98311">
        <ele>79.926636</ele>
        <time>2013-05-02T14:20:04Z</time>
      </trkpt>
      <trkpt lat="32.65227" lon="-16.98304">
        <ele>79.446045</ele>
        <time>2013-05-02T14:20:09Z</time>
      </trkpt>
      <trkpt lat="32.65218" lon="-16.98285">
        <ele>76.081421</ele>
        <time>2013-05-02T14:20:24Z</time>
      </trkpt>
      <trkpt lat="32.65216" lon="-16.98279">
        <ele>75.60083</ele>
        <time>2013-05-02T14:20:28Z</time>
      </trkpt>
      <trkpt lat="32.652" lon="-16.98258">
        <ele>73.197632</ele>
        <time>2013-05-02T14:20:48Z</time>
      </trkpt>
      <trkpt lat="32.65189" lon="-16.98248">
        <ele>69.832886</ele>
        <time>2013-05-02T14:20:59Z</time>
      </trkpt>
      <trkpt lat="32.65181" lon="-16.98244">
        <ele>68.390869</ele>
        <time>2013-05-02T14:21:05Z</time>
      </trkpt>
      <trkpt lat="32.65173" lon="-16.98238">
        <ele>67.910278</ele>
        <time>2013-05-02T14:21:22Z</time>
      </trkpt>
      <trkpt lat="32.65166" lon="-16.98233">
        <ele>66.468262</ele>
        <time>2013-05-02T14:21:30Z</time>
      </trkpt>
      <trkpt lat="32.65162" lon="-16.98231">
        <ele>65.987671</ele>
        <time>2013-05-02T14:21:33Z</time>
      </trkpt>
      <trkpt lat="32.65156" lon="-16.98233">
        <ele>65.50708</ele>
        <time>2013-05-02T14:21:38Z</time>
      </trkpt>
      <trkpt lat="32.65142" lon="-16.98223">
        <ele>63.584351</ele>
        <time>2013-05-02T14:21:52Z</time>
      </trkpt>
      <trkpt lat="32.65134" lon="-16.98206">
        <ele>62.142334</ele>
        <time>2013-05-02T14:22:04Z</time>
      </trkpt>
      <trkpt lat="32.65103" lon="-16.982">
        <ele>59.258423</ele>
        <time>2013-05-02T14:22:21Z</time>
      </trkpt>
      <trkpt lat="32.65084" lon="-16.98188">
        <ele>58.297119</ele>
        <time>2013-05-02T14:22:39Z</time>
      </trkpt>
      <trkpt lat="32.65084" lon="-16.98188">
        <ele>57.816528</ele>
        <time>2013-05-02T14:22:40Z</time>
      </trkpt>
      <trkpt lat="32.65095" lon="-16.98199">
        <ele>57.335815</ele>
        <time>2013-05-02T14:22:55Z</time>
      </trkpt>
    </trkseg>
  </trk>
  <trk>
    <name><![CDATA[ACTIVE LOG 001]]></name>
    <trkseg>
      <trkpt lat="32.65103" lon="-16.9821">
        <ele>56.374512</ele>
        <time>2013-05-02T14:23:17Z</time>
      </trkpt>
      <trkpt lat="32.65103" lon="-16.9821">
        <ele>53.009766</ele>
        <time>2013-05-02T14:24:31Z</time>
      </trkpt>
      <trkpt lat="32.65103" lon="-16.9821">
        <ele>50.125977</ele>
        <time>2013-05-02T14:24:54Z</time>
      </trkpt>
      <trkpt lat="32.64984" lon="-16.97943">
        <ele>49.164551</ele>
        <time>2013-05-02T14:24:57Z</time>
      </trkpt>
      <trkpt lat="32.6498" lon="-16.97947">
        <ele>48.68396</ele>
        <time>2013-05-02T14:25:01Z</time>
      </trkpt>
      <trkpt lat="32.6497" lon="-16.9795">
        <ele>47.241821</ele>
        <time>2013-05-02T14:25:09Z</time>
      </trkpt>
      <trkpt lat="32.64966" lon="-16.97955">
        <ele>47.241821</ele>
        <time>2013-05-02T14:25:11Z</time>
      </trkpt>
      <trkpt lat="32.64957" lon="-16.97979">
        <ele>48.68396</ele>
        <time>2013-05-02T14:25:22Z</time>
      </trkpt>
      <trkpt lat="32.64957" lon="-16.97982">
        <ele>47.241821</ele>
        <time>2013-05-02T14:25:24Z</time>
      </trkpt>
      <trkpt lat="32.64958" lon="-16.97989">
        <ele>47.722534</ele>
        <time>2013-05-02T14:25:41Z</time>
      </trkpt>
      <trkpt lat="32.64962" lon="-16.9799">
        <ele>47.241821</ele>
        <time>2013-05-02T14:25:55Z</time>
      </trkpt>
      <trkpt lat="32.64963" lon="-16.97989">
        <ele>47.241821</ele>
        <time>2013-05-02T14:25:56Z</time>
      </trkpt>
      <trkpt lat="32.64964" lon="-16.97989">
        <ele>48.203369</ele>
        <time>2013-05-02T14:26:18Z</time>
      </trkpt>
      <trkpt lat="32.64965" lon="-16.97987">
        <ele>48.203369</ele>
        <time>2013-05-02T14:26:30Z</time>
      </trkpt>
      <trkpt lat="32.64966" lon="-16.9799">
        <ele>48.203369</ele>
        <time>2013-05-02T14:27:17Z</time>
      </trkpt>
      <trkpt lat="32.64965" lon="-16.97989">
        <ele>47.241821</ele>
        <time>2013-05-02T14:27:32Z</time>
      </trkpt>
      <trkpt lat="32.64964" lon="-16.9799">
        <ele>47.722534</ele>
        <time>2013-05-02T14:28:39Z</time>
      </trkpt>
      <trkpt lat="32.64965" lon="-16.97984">
        <ele>47.241821</ele>
        <time>2013-05-02T14:29:54Z</time>
      </trkpt>
      <trkpt lat="32.64964" lon="-16.9798">
        <ele>47.241821</ele>
        <time>2013-05-02T14:29:58Z</time>
      </trkpt>
      <trkpt lat="32.64963" lon="-16.97971">
        <ele>45.799927</ele>
        <time>2013-05-02T14:30:10Z</time>
      </trkpt>
      <trkpt lat="32.64962" lon="-16.97969">
        <ele>46.28064</ele>
        <time>2013-05-02T14:30:12Z</time>
      </trkpt>
      <trkpt lat="32.64955" lon="-16.97948">
        <ele>42.435425</ele>
        <time>2013-05-02T14:30:29Z</time>
      </trkpt>
      <trkpt lat="32.64951" lon="-16.97935">
        <ele>40.032104</ele>
        <time>2013-05-02T14:30:42Z</time>
      </trkpt>
      <trkpt lat="32.64948" lon="-16.97922">
        <ele>37.628662</ele>
        <time>2013-05-02T14:30:57Z</time>
      </trkpt>
      <trkpt lat="32.64946" lon="-16.97905">
        <ele>35.225464</ele>
        <time>2013-05-02T14:31:11Z</time>
      </trkpt>
      <trkpt lat="32.64945" lon="-16.97883">
        <ele>33.302856</ele>
        <time>2013-05-02T14:31:27Z</time>
      </trkpt>
      <trkpt lat="32.64945" lon="-16.97869">
        <ele>33.302856</ele>
        <time>2013-05-02T14:31:42Z</time>
      </trkpt>
      <trkpt lat="32.64944" lon="-16.97866">
        <ele>32.341553</ele>
        <time>2013-05-02T14:31:45Z</time>
      </trkpt>
      <trkpt lat="32.64931" lon="-16.97847">
        <ele>30.899536</ele>
        <time>2013-05-02T14:32:00Z</time>
      </trkpt>
      <trkpt lat="32.64922" lon="-16.9784">
        <ele>29.93811</ele>
        <time>2013-05-02T14:32:08Z</time>
      </trkpt>
      <trkpt lat="32.64917" lon="-16.97834">
        <ele>29.45752</ele>
        <time>2013-05-02T14:32:14Z</time>
      </trkpt>
      <trkpt lat="32.64909" lon="-16.9783">
        <ele>28.976929</ele>
        <time>2013-05-02T14:32:21Z</time>
      </trkpt>
      <trkpt lat="32.64904" lon="-16.97827">
        <ele>28.976929</ele>
        <time>2013-05-02T14:32:26Z</time>
      </trkpt>
      <trkpt lat="32.64897" lon="-16.97826">
        <ele>28.976929</ele>
        <time>2013-05-02T14:32:31Z</time>
      </trkpt>
      <trkpt lat="32.64881" lon="-16.97831">
        <ele>28.496216</ele>
        <time>2013-05-02T14:32:43Z</time>
      </trkpt>
      <trkpt lat="32.64862" lon="-16.97833">
        <ele>28.976929</ele>
        <time>2013-05-02T14:33:00Z</time>
      </trkpt>
      <trkpt lat="32.64853" lon="-16.97837">
        <ele>28.015503</ele>
        <time>2013-05-02T14:33:11Z</time>
      </trkpt>
      <trkpt lat="32.64853" lon="-16.97837">
        <ele>28.976929</ele>
        <time>2013-05-02T14:33:13Z</time>
      </trkpt>
      <trkpt lat="32.64848" lon="-16.97832">
        <ele>28.496216</ele>
        <time>2013-05-02T14:33:19Z</time>
      </trkpt>
      <trkpt lat="32.64841" lon="-16.97831">
        <ele>28.496216</ele>
        <time>2013-05-02T14:33:42Z</time>
      </trkpt>
      <trkpt lat="32.64839" lon="-16.97829">
        <ele>28.496216</ele>
        <time>2013-05-02T14:33:54Z</time>
      </trkpt>
      <trkpt lat="32.6483" lon="-16.97809">
        <ele>28.496216</ele>
        <time>2013-05-02T14:34:07Z</time>
      </trkpt>
      <trkpt lat="32.64827" lon="-16.97807">
        <ele>28.015503</ele>
        <time>2013-05-02T14:34:10Z</time>
      </trkpt>
      <trkpt lat="32.64824" lon="-16.97802">
        <ele>28.015503</ele>
        <time>2013-05-02T14:34:15Z</time>
      </trkpt>
      <trkpt lat="32.64813" lon="-16.97783">
        <ele>27.054321</ele>
        <time>2013-05-02T14:34:30Z</time>
      </trkpt>
      <trkpt lat="32.64805" lon="-16.97766">
        <ele>26.573608</ele>
        <time>2013-05-02T14:34:42Z</time>
      </trkpt>
      <trkpt lat="32.64794" lon="-16.97752">
        <ele>26.573608</ele>
        <time>2013-05-02T14:34:54Z</time>
      </trkpt>
      <trkpt lat="32.64778" lon="-16.97738">
        <ele>25.612305</ele>
        <time>2013-05-02T14:35:09Z</time>
      </trkpt>
      <trkpt lat="32.64763" lon="-16.97727">
        <ele>25.612305</ele>
        <time>2013-05-02T14:35:22Z</time>
      </trkpt>
      <trkpt lat="32.64747" lon="-16.97728">
        <ele>25.131714</ele>
        <time>2013-05-02T14:35:37Z</time>
      </trkpt>
      <trkpt lat="32.64745" lon="-16.9773">
        <ele>25.131714</ele>
        <time>2013-05-02T14:36:02Z</time>
      </trkpt>
      <trkpt lat="32.64742" lon="-16.97721">
        <ele>24.170288</ele>
        <time>2013-05-02T14:36:16Z</time>
      </trkpt>
      <trkpt lat="32.64741" lon="-16.97698">
        <ele>23.689575</ele>
        <time>2013-05-02T14:36:32Z</time>
      </trkpt>
      <trkpt lat="32.64736" lon="-16.97676">
        <ele>22.728271</ele>
        <time>2013-05-02T14:36:47Z</time>
      </trkpt>
      <trkpt lat="32.64735" lon="-16.97661">
        <ele>22.247559</ele>
        <time>2013-05-02T14:37:02Z</time>
      </trkpt>
      <trkpt lat="32.64734" lon="-16.97653">
        <ele>22.247559</ele>
        <time>2013-05-02T14:37:11Z</time>
      </trkpt>
      <trkpt lat="32.64734" lon="-16.97649">
        <ele>21.766968</ele>
        <time>2013-05-02T14:37:14Z</time>
      </trkpt>
      <trkpt lat="32.64733" lon="-16.97644">
        <ele>21.766968</ele>
        <time>2013-05-02T14:37:18Z</time>
      </trkpt>
      <trkpt lat="32.64731" lon="-16.97627">
        <ele>20.805664</ele>
        <time>2013-05-02T14:37:29Z</time>
      </trkpt>
      <trkpt lat="32.64729" lon="-16.97606">
        <ele>19.84436</ele>
        <time>2013-05-02T14:37:44Z</time>
      </trkpt>
      <trkpt lat="32.64729" lon="-16.97605">
        <ele>20.324951</ele>
        <time>2013-05-02T14:37:45Z</time>
      </trkpt>
      <trkpt lat="32.64744" lon="-16.97601">
        <ele>20.805664</ele>
        <time>2013-05-02T14:38:00Z</time>
      </trkpt>
      <trkpt lat="32.6475" lon="-16.97593">
        <ele>20.805664</ele>
        <time>2013-05-02T14:38:13Z</time>
      </trkpt>
      <trkpt lat="32.64755" lon="-16.97596">
        <ele>21.286377</ele>
        <time>2013-05-02T14:39:07Z</time>
      </trkpt>
      <trkpt lat="32.64755" lon="-16.976">
        <ele>20.805664</ele>
        <time>2013-05-02T14:39:12Z</time>
      </trkpt>
      <trkpt lat="32.64757" lon="-16.97605">
        <ele>20.805664</ele>
        <time>2013-05-02T14:39:17Z</time>
      </trkpt>
      <trkpt lat="32.64764" lon="-16.97608">
        <ele>20.324951</ele>
        <time>2013-05-02T14:39:22Z</time>
      </trkpt>
      <trkpt lat="32.64781" lon="-16.97608">
        <ele>21.286377</ele>
        <time>2013-05-02T14:39:36Z</time>
      </trkpt>
      <trkpt lat="32.64799" lon="-16.97599">
        <ele>20.805664</ele>
        <time>2013-05-02T14:39:51Z</time>
      </trkpt>
      <trkpt lat="32.64801" lon="-16.97598">
        <ele>19.84436</ele>
        <time>2013-05-02T14:39:53Z</time>
      </trkpt>
      <trkpt lat="32.6481" lon="-16.97587">
        <ele>16.960449</ele>
        <time>2013-05-02T14:40:09Z</time>
      </trkpt>
      <trkpt lat="32.64808" lon="-16.97574">
        <ele>14.557007</ele>
        <time>2013-05-02T14:40:19Z</time>
      </trkpt>
      <trkpt lat="32.64806" lon="-16.97568">
        <ele>13.115112</ele>
        <time>2013-05-02T14:40:23Z</time>
      </trkpt>
      <trkpt lat="32.64808" lon="-16.97537">
        <ele>12.634399</ele>
        <time>2013-05-02T14:40:43Z</time>
      </trkpt>
      <trkpt lat="32.64812" lon="-16.97517">
        <ele>12.153809</ele>
        <time>2013-05-02T14:40:57Z</time>
      </trkpt>
      <trkpt lat="32.64814" lon="-16.97515">
        <ele>12.153809</ele>
        <time>2013-05-02T14:40:59Z</time>
      </trkpt>
      <trkpt lat="32.64822" lon="-16.97512">
        <ele>11.673218</ele>
        <time>2013-05-02T14:41:05Z</time>
      </trkpt>
      <trkpt lat="32.64826" lon="-16.97508">
        <ele>11.673218</ele>
        <time>2013-05-02T14:41:13Z</time>
      </trkpt>
      <trkpt lat="32.64824" lon="-16.97498">
        <ele>12.153809</ele>
        <time>2013-05-02T14:41:20Z</time>
      </trkpt>
      <trkpt lat="32.64821" lon="-16.97483">
        <ele>11.673218</ele>
        <time>2013-05-02T14:41:31Z</time>
      </trkpt>
      <trkpt lat="32.64818" lon="-16.97468">
        <ele>11.673218</ele>
        <time>2013-05-02T14:41:44Z</time>
      </trkpt>
      <trkpt lat="32.6482" lon="-16.97448">
        <ele>14.557007</ele>
        <time>2013-05-02T14:41:59Z</time>
      </trkpt>
      <trkpt lat="32.64823" lon="-16.97448">
        <ele>15.518433</ele>
        <time>2013-05-02T14:42:10Z</time>
      </trkpt>
      <trkpt lat="32.6482" lon="-16.97444">
        <ele>15.518433</ele>
        <time>2013-05-02T14:42:34Z</time>
      </trkpt>
      <trkpt lat="32.64813" lon="-16.97448">
        <ele>15.518433</ele>
        <time>2013-05-02T14:42:39Z</time>
      </trkpt>
      <trkpt lat="32.64801" lon="-16.97445">
        <ele>15.999023</ele>
        <time>2013-05-02T14:42:50Z</time>
      </trkpt>
      <trkpt lat="32.64791" lon="-16.97443">
        <ele>16.960449</ele>
        <time>2013-05-02T14:43:04Z</time>
      </trkpt>
      <trkpt lat="32.64784" lon="-16.97444">
        <ele>19.84436</ele>
        <time>2013-05-02T14:43:15Z</time>
      </trkpt>
      <trkpt lat="32.64783" lon="-16.97442">
        <ele>22.247559</ele>
        <time>2013-05-02T14:43:20Z</time>
      </trkpt>
      <trkpt lat="32.64775" lon="-16.9744">
        <ele>24.651001</ele>
        <time>2013-05-02T14:43:29Z</time>
      </trkpt>
      <trkpt lat="32.64765" lon="-16.97435">
        <ele>26.573608</ele>
        <time>2013-05-02T14:43:42Z</time>
      </trkpt>
      <trkpt lat="32.64759" lon="-16.97432">
        <ele>27.534912</ele>
        <time>2013-05-02T14:43:52Z</time>
      </trkpt>
      <trkpt lat="32.64747" lon="-16.97429">
        <ele>27.054321</ele>
        <time>2013-05-02T14:44:03Z</time>
      </trkpt>
      <trkpt lat="32.64741" lon="-16.9743">
        <ele>26.092896</ele>
        <time>2013-05-02T14:44:07Z</time>
      </trkpt>
      <trkpt lat="32.64722" lon="-16.97432">
        <ele>25.612305</ele>
        <time>2013-05-02T14:44:22Z</time>
      </trkpt>
      <trkpt lat="32.64708" lon="-16.97429">
        <ele>25.131714</ele>
        <time>2013-05-02T14:44:33Z</time>
      </trkpt>
      <trkpt lat="32.64706" lon="-16.97428">
        <ele>25.612305</ele>
        <time>2013-05-02T14:44:36Z</time>
      </trkpt>
      <trkpt lat="32.64689" lon="-16.97414">
        <ele>26.092896</ele>
        <time>2013-05-02T14:44:53Z</time>
      </trkpt>
      <trkpt lat="32.64682" lon="-16.97406">
        <ele>26.092896</ele>
        <time>2013-05-02T14:45:07Z</time>
      </trkpt>
      <trkpt lat="32.6468" lon="-16.97401">
        <ele>26.092896</ele>
        <time>2013-05-02T14:45:31Z</time>
      </trkpt>
      <trkpt lat="32.64686" lon="-16.97385">
        <ele>26.092896</ele>
        <time>2013-05-02T14:45:44Z</time>
      </trkpt>
      <trkpt lat="32.64685" lon="-16.97377">
        <ele>25.612305</ele>
        <time>2013-05-02T14:45:52Z</time>
      </trkpt>
      <trkpt lat="32.64684" lon="-16.97363">
        <ele>24.170288</ele>
        <time>2013-05-02T14:46:03Z</time>
      </trkpt>
      <trkpt lat="32.6468" lon="-16.97354">
        <ele>22.728271</ele>
        <time>2013-05-02T14:46:14Z</time>
      </trkpt>
      <trkpt lat="32.64677" lon="-16.97353">
        <ele>22.728271</ele>
        <time>2013-05-02T14:46:17Z</time>
      </trkpt>
      <trkpt lat="32.64662" lon="-16.97348">
        <ele>25.131714</ele>
        <time>2013-05-02T14:46:32Z</time>
      </trkpt>
      <trkpt lat="32.64661" lon="-16.97351">
        <ele>25.131714</ele>
        <time>2013-05-02T14:46:47Z</time>
      </trkpt>
      <trkpt lat="32.6466" lon="-16.97339">
        <ele>24.651001</ele>
        <time>2013-05-02T14:46:59Z</time>
      </trkpt>
      <trkpt lat="32.6466" lon="-16.97334">
        <ele>24.651001</ele>
        <time>2013-05-02T14:47:03Z</time>
      </trkpt>
      <trkpt lat="32.64659" lon="-16.97331">
        <ele>24.651001</ele>
        <time>2013-05-02T14:47:06Z</time>
      </trkpt>
      <trkpt lat="32.64655" lon="-16.97325">
        <ele>24.651001</ele>
        <time>2013-05-02T14:47:11Z</time>
      </trkpt>
      <trkpt lat="32.64647" lon="-16.97315">
        <ele>24.170288</ele>
        <time>2013-05-02T14:47:23Z</time>
      </trkpt>
      <trkpt lat="32.64629" lon="-16.97304">
        <ele>24.170288</ele>
        <time>2013-05-02T14:47:38Z</time>
      </trkpt>
      <trkpt lat="32.64626" lon="-16.973">
        <ele>23.689575</ele>
        <time>2013-05-02T14:47:41Z</time>
      </trkpt>
      <trkpt lat="32.6462" lon="-16.97297">
        <ele>23.689575</ele>
        <time>2013-05-02T14:47:45Z</time>
      </trkpt>
      <trkpt lat="32.64614" lon="-16.97288">
        <ele>23.689575</ele>
        <time>2013-05-02T14:47:53Z</time>
      </trkpt>
      <trkpt lat="32.6461" lon="-16.97279">
        <ele>22.247559</ele>
        <time>2013-05-02T14:48:00Z</time>
      </trkpt>
      <trkpt lat="32.64601" lon="-16.9727">
        <ele>22.247559</ele>
        <time>2013-05-02T14:48:09Z</time>
      </trkpt>
      <trkpt lat="32.64597" lon="-16.97261">
        <ele>21.766968</ele>
        <time>2013-05-02T14:48:16Z</time>
      </trkpt>
      <trkpt lat="32.64591" lon="-16.97256">
        <ele>21.286377</ele>
        <time>2013-05-02T14:48:22Z</time>
      </trkpt>
      <trkpt lat="32.64577" lon="-16.97235">
        <ele>21.286377</ele>
        <time>2013-05-02T14:48:39Z</time>
      </trkpt>
      <trkpt lat="32.64576" lon="-16.97233">
        <ele>21.286377</ele>
        <time>2013-05-02T14:48:41Z</time>
      </trkpt>
      <trkpt lat="32.64564" lon="-16.97216">
        <ele>24.170288</ele>
        <time>2013-05-02T14:48:55Z</time>
      </trkpt>
      <trkpt lat="32.64561" lon="-16.97215">
        <ele>24.170288</ele>
        <time>2013-05-02T14:48:57Z</time>
      </trkpt>
      <trkpt lat="32.64561" lon="-16.97212">
        <ele>23.689575</ele>
        <time>2013-05-02T14:48:59Z</time>
      </trkpt>
      <trkpt lat="32.64559" lon="-16.97207">
        <ele>25.131714</ele>
        <time>2013-05-02T14:49:03Z</time>
      </trkpt>
      <trkpt lat="32.64558" lon="-16.97205">
        <ele>25.612305</ele>
        <time>2013-05-02T14:49:05Z</time>
      </trkpt>
      <trkpt lat="32.64537" lon="-16.97199">
        <ele>26.573608</ele>
        <time>2013-05-02T14:49:19Z</time>
      </trkpt>
      <trkpt lat="32.64521" lon="-16.9719">
        <ele>28.015503</ele>
        <time>2013-05-02T14:49:36Z</time>
      </trkpt>
      <trkpt lat="32.64505" lon="-16.97179">
        <ele>30.418823</ele>
        <time>2013-05-02T14:49:51Z</time>
      </trkpt>
      <trkpt lat="32.64504" lon="-16.97178">
        <ele>30.899536</ele>
        <time>2013-05-02T14:49:53Z</time>
      </trkpt>
      <trkpt lat="32.645" lon="-16.97154">
        <ele>31.380127</ele>
        <time>2013-05-02T14:50:08Z</time>
      </trkpt>
      <trkpt lat="32.64498" lon="-16.97123">
        <ele>32.822266</ele>
        <time>2013-05-02T14:50:28Z</time>
      </trkpt>
      <trkpt lat="32.64499" lon="-16.97098">
        <ele>31.860718</ele>
        <time>2013-05-02T14:50:46Z</time>
      </trkpt>
      <trkpt lat="32.64499" lon="-16.97076">
        <ele>29.93811</ele>
        <time>2013-05-02T14:51:00Z</time>
      </trkpt>
      <trkpt lat="32.64502" lon="-16.97044">
        <ele>28.496216</ele>
        <time>2013-05-02T14:51:20Z</time>
      </trkpt>
      <trkpt lat="32.64509" lon="-16.97016">
        <ele>27.534912</ele>
        <time>2013-05-02T14:51:39Z</time>
      </trkpt>
      <trkpt lat="32.64513" lon="-16.97005">
        <ele>25.612305</ele>
        <time>2013-05-02T14:51:48Z</time>
      </trkpt>
      <trkpt lat="32.6451" lon="-16.96995">
        <ele>24.170288</ele>
        <time>2013-05-02T14:51:55Z</time>
      </trkpt>
      <trkpt lat="32.64513" lon="-16.96985">
        <ele>23.689575</ele>
        <time>2013-05-02T14:52:02Z</time>
      </trkpt>
      <trkpt lat="32.64522" lon="-16.96958">
        <ele>20.324951</ele>
        <time>2013-05-02T14:52:21Z</time>
      </trkpt>
      <trkpt lat="32.64523" lon="-16.96954">
        <ele>20.324951</ele>
        <time>2013-05-02T14:52:24Z</time>
      </trkpt>
      <trkpt lat="32.64507" lon="-16.96943">
        <ele>18.883057</ele>
        <time>2013-05-02T14:52:39Z</time>
      </trkpt>
      <trkpt lat="32.64488" lon="-16.96925">
        <ele>17.921753</ele>
        <time>2013-05-02T14:52:58Z</time>
      </trkpt>
      <trkpt lat="32.64475" lon="-16.96902">
        <ele>15.03772</ele>
        <time>2013-05-02T14:53:15Z</time>
      </trkpt>
      <trkpt lat="32.64459" lon="-16.96873">
        <ele>12.634399</ele>
        <time>2013-05-02T14:53:36Z</time>
      </trkpt>
      <trkpt lat="32.64451" lon="-16.96861">
        <ele>12.153809</ele>
        <time>2013-05-02T14:53:45Z</time>
      </trkpt>
      <trkpt lat="32.64443" lon="-16.96837">
        <ele>13.115112</ele>
        <time>2013-05-02T14:54:00Z</time>
      </trkpt>
      <trkpt lat="32.64431" lon="-16.96806">
        <ele>12.634399</ele>
        <time>2013-05-02T14:54:20Z</time>
      </trkpt>
      <trkpt lat="32.64421" lon="-16.96778">
        <ele>12.634399</ele>
        <time>2013-05-02T14:54:39Z</time>
      </trkpt>
      <trkpt lat="32.6442" lon="-16.96775">
        <ele>13.115112</ele>
        <time>2013-05-02T14:54:41Z</time>
      </trkpt>
      <trkpt lat="32.64414" lon="-16.9676">
        <ele>12.634399</ele>
        <time>2013-05-02T14:54:51Z</time>
      </trkpt>
      <trkpt lat="32.64413" lon="-16.96756">
        <ele>12.634399</ele>
        <time>2013-05-02T14:54:54Z</time>
      </trkpt>
      <trkpt lat="32.64405" lon="-16.96729">
        <ele>13.115112</ele>
        <time>2013-05-02T14:55:11Z</time>
      </trkpt>
      <trkpt lat="32.64402" lon="-16.9672">
        <ele>12.634399</ele>
        <time>2013-05-02T14:55:17Z</time>
      </trkpt>
      <trkpt lat="32.64399" lon="-16.96719">
        <ele>12.634399</ele>
        <time>2013-05-02T14:55:20Z</time>
      </trkpt>
      <trkpt lat="32.64399" lon="-16.96706">
        <ele>12.153809</ele>
        <time>2013-05-02T14:55:27Z</time>
      </trkpt>
      <trkpt lat="32.6439" lon="-16.96678">
        <ele>12.153809</ele>
        <time>2013-05-02T14:55:44Z</time>
      </trkpt>
      <trkpt lat="32.64381" lon="-16.96656">
        <ele>12.634399</ele>
        <time>2013-05-02T14:55:58Z</time>
      </trkpt>
      <trkpt lat="32.64372" lon="-16.96634">
        <ele>12.634399</ele>
        <time>2013-05-02T14:56:13Z</time>
      </trkpt>
      <trkpt lat="32.64371" lon="-16.96633">
        <ele>13.115112</ele>
        <time>2013-05-02T14:56:14Z</time>
      </trkpt>
      <trkpt lat="32.64368" lon="-16.96626">
        <ele>12.634399</ele>
        <time>2013-05-02T14:56:19Z</time>
      </trkpt>
      <trkpt lat="32.64366" lon="-16.96621">
        <ele>13.115112</ele>
        <time>2013-05-02T14:56:22Z</time>
      </trkpt>
      <trkpt lat="32.64362" lon="-16.96614">
        <ele>12.634399</ele>
        <time>2013-05-02T14:56:27Z</time>
      </trkpt>
      <trkpt lat="32.64359" lon="-16.96606">
        <ele>13.115112</ele>
        <time>2013-05-02T14:56:32Z</time>
      </trkpt>
      <trkpt lat="32.64354" lon="-16.96595">
        <ele>12.634399</ele>
        <time>2013-05-02T14:56:47Z</time>
      </trkpt>
      <trkpt lat="32.64353" lon="-16.96594">
        <ele>13.115112</ele>
        <time>2013-05-02T14:56:48Z</time>
      </trkpt>
      <trkpt lat="32.64357" lon="-16.9657">
        <ele>13.115112</ele>
        <time>2013-05-02T14:57:01Z</time>
      </trkpt>
      <trkpt lat="32.64354" lon="-16.96556">
        <ele>13.115112</ele>
        <time>2013-05-02T14:57:09Z</time>
      </trkpt>
      <trkpt lat="32.64347" lon="-16.96544">
        <ele>13.115112</ele>
        <time>2013-05-02T14:57:18Z</time>
      </trkpt>
      <trkpt lat="32.64339" lon="-16.96522">
        <ele>14.076416</ele>
        <time>2013-05-02T14:57:32Z</time>
      </trkpt>
      <trkpt lat="32.64325" lon="-16.96496">
        <ele>14.076416</ele>
        <time>2013-05-02T14:57:50Z</time>
      </trkpt>
      <trkpt lat="32.64316" lon="-16.96473">
        <ele>14.076416</ele>
        <time>2013-05-02T14:58:06Z</time>
      </trkpt>
      <trkpt lat="32.64317" lon="-16.96451">
        <ele>14.557007</ele>
        <time>2013-05-02T14:58:20Z</time>
      </trkpt>
      <trkpt lat="32.64334" lon="-16.96431">
        <ele>14.557007</ele>
        <time>2013-05-02T14:58:37Z</time>
      </trkpt>
      <trkpt lat="32.64339" lon="-16.96425">
        <ele>15.03772</ele>
        <time>2013-05-02T14:58:42Z</time>
      </trkpt>
      <trkpt lat="32.64341" lon="-16.96424">
        <ele>15.03772</ele>
        <time>2013-05-02T14:58:44Z</time>
      </trkpt>
      <trkpt lat="32.64347" lon="-16.96412">
        <ele>15.03772</ele>
        <time>2013-05-02T14:58:52Z</time>
      </trkpt>
      <trkpt lat="32.64348" lon="-16.96387">
        <ele>14.557007</ele>
        <time>2013-05-02T14:59:07Z</time>
      </trkpt>
      <trkpt lat="32.64348" lon="-16.96385">
        <ele>14.076416</ele>
        <time>2013-05-02T14:59:08Z</time>
      </trkpt>
      <trkpt lat="32.64348" lon="-16.96374">
        <ele>13.595825</ele>
        <time>2013-05-02T14:59:13Z</time>
      </trkpt>
      <trkpt lat="32.64348" lon="-16.96367">
        <ele>13.115112</ele>
        <time>2013-05-02T14:59:17Z</time>
      </trkpt>
      <trkpt lat="32.6435" lon="-16.96355">
        <ele>13.595825</ele>
        <time>2013-05-02T14:59:23Z</time>
      </trkpt>
      <trkpt lat="32.64347" lon="-16.96336">
        <ele>13.595825</ele>
        <time>2013-05-02T14:59:35Z</time>
      </trkpt>
      <trkpt lat="32.64339" lon="-16.96313">
        <ele>13.595825</ele>
        <time>2013-05-02T14:59:49Z</time>
      </trkpt>
      <trkpt lat="32.64337" lon="-16.96311">
        <ele>14.076416</ele>
        <time>2013-05-02T14:59:51Z</time>
      </trkpt>
      <trkpt lat="32.64333" lon="-16.96305">
        <ele>13.595825</ele>
        <time>2013-05-02T14:59:56Z</time>
      </trkpt>
      <trkpt lat="32.64333" lon="-16.96287">
        <ele>13.595825</ele>
        <time>2013-05-02T15:00:09Z</time>
      </trkpt>
      <trkpt lat="32.64333" lon="-16.96282">
        <ele>13.595825</ele>
        <time>2013-05-02T15:00:12Z</time>
      </trkpt>
      <trkpt lat="32.64331" lon="-16.96261">
        <ele>14.076416</ele>
        <time>2013-05-02T15:00:25Z</time>
      </trkpt>
      <trkpt lat="32.6433" lon="-16.96259">
        <ele>14.076416</ele>
        <time>2013-05-02T15:00:26Z</time>
      </trkpt>
      <trkpt lat="32.64319" lon="-16.96242">
        <ele>14.076416</ele>
        <time>2013-05-02T15:00:38Z</time>
      </trkpt>
      <trkpt lat="32.64314" lon="-16.96239">
        <ele>14.557007</ele>
        <time>2013-05-02T15:00:42Z</time>
      </trkpt>
      <trkpt lat="32.64307" lon="-16.96227">
        <ele>14.557007</ele>
        <time>2013-05-02T15:00:52Z</time>
      </trkpt>
      <trkpt lat="32.64296" lon="-16.96205">
        <ele>15.518433</ele>
        <time>2013-05-02T15:01:10Z</time>
      </trkpt>
      <trkpt lat="32.64297" lon="-16.96182">
        <ele>15.518433</ele>
        <time>2013-05-02T15:01:26Z</time>
      </trkpt>
      <trkpt lat="32.64303" lon="-16.96169">
        <ele>15.999023</ele>
        <time>2013-05-02T15:01:35Z</time>
      </trkpt>
      <trkpt lat="32.64312" lon="-16.96144">
        <ele>15.518433</ele>
        <time>2013-05-02T15:01:53Z</time>
      </trkpt>
      <trkpt lat="32.64322" lon="-16.96122">
        <ele>15.03772</ele>
        <time>2013-05-02T15:02:11Z</time>
      </trkpt>
      <trkpt lat="32.64335" lon="-16.96103">
        <ele>15.03772</ele>
        <time>2013-05-02T15:02:26Z</time>
      </trkpt>
      <trkpt lat="32.64338" lon="-16.96076">
        <ele>15.03772</ele>
        <time>2013-05-02T15:02:41Z</time>
      </trkpt>
      <trkpt lat="32.64333" lon="-16.96043">
        <ele>15.03772</ele>
        <time>2013-05-02T15:02:58Z</time>
      </trkpt>
      <trkpt lat="32.64329" lon="-16.96015">
        <ele>14.557007</ele>
        <time>2013-05-02T15:03:15Z</time>
      </trkpt>
      <trkpt lat="32.64325" lon="-16.95992">
        <ele>14.557007</ele>
        <time>2013-05-02T15:03:29Z</time>
      </trkpt>
      <trkpt lat="32.64314" lon="-16.95969">
        <ele>14.076416</ele>
        <time>2013-05-02T15:03:44Z</time>
      </trkpt>
      <trkpt lat="32.64305" lon="-16.9595">
        <ele>15.03772</ele>
        <time>2013-05-02T15:03:58Z</time>
      </trkpt>
      <trkpt lat="32.64299" lon="-16.95938">
        <ele>14.557007</ele>
        <time>2013-05-02T15:04:12Z</time>
      </trkpt>
      <trkpt lat="32.64291" lon="-16.95916">
        <ele>15.03772</ele>
        <time>2013-05-02T15:04:31Z</time>
      </trkpt>
      <trkpt lat="32.64293" lon="-16.95916">
        <ele>15.999023</ele>
        <time>2013-05-02T15:04:36Z</time>
      </trkpt>
      <trkpt lat="32.64296" lon="-16.95921">
        <ele>15.03772</ele>
        <time>2013-05-02T15:04:41Z</time>
      </trkpt>
      <trkpt lat="32.64303" lon="-16.95935">
        <ele>15.03772</ele>
        <time>2013-05-02T15:04:52Z</time>
      </trkpt>
      <trkpt lat="32.64313" lon="-16.95933">
        <ele>16.960449</ele>
        <time>2013-05-02T15:05:05Z</time>
      </trkpt>
      <trkpt lat="32.64318" lon="-16.95941">
        <ele>19.84436</ele>
        <time>2013-05-02T15:05:14Z</time>
      </trkpt>
      <trkpt lat="32.6433" lon="-16.95961">
        <ele>23.689575</ele>
        <time>2013-05-02T15:05:33Z</time>
      </trkpt>
      <trkpt lat="32.64337" lon="-16.95969">
        <ele>28.015503</ele>
        <time>2013-05-02T15:05:43Z</time>
      </trkpt>
      <trkpt lat="32.64337" lon="-16.95969">
        <ele>28.015503</ele>
        <time>2013-05-02T15:05:44Z</time>
      </trkpt>
      <trkpt lat="32.64341" lon="-16.9597">
        <ele>28.976929</ele>
        <time>2013-05-02T15:05:52Z</time>
      </trkpt>
      <trkpt lat="32.64342" lon="-16.95967">
        <ele>29.45752</ele>
        <time>2013-05-02T15:05:54Z</time>
      </trkpt>
      <trkpt lat="32.64338" lon="-16.95961">
        <ele>29.93811</ele>
        <time>2013-05-02T15:06:00Z</time>
      </trkpt>
      <trkpt lat="32.64343" lon="-16.95948">
        <ele>31.380127</ele>
        <time>2013-05-02T15:06:16Z</time>
      </trkpt>
      <trkpt lat="32.64343" lon="-16.95948">
        <ele>35.706055</ele>
        <time>2013-05-02T15:06:17Z</time>
      </trkpt>
      <trkpt lat="32.64342" lon="-16.95948">
        <ele>33.783447</ele>
        <time>2013-05-02T15:06:18Z</time>
      </trkpt>
      <trkpt lat="32.64344" lon="-16.95941">
        <ele>35.706055</ele>
        <time>2013-05-02T15:06:29Z</time>
      </trkpt>
      <trkpt lat="32.64342" lon="-16.9594">
        <ele>35.225464</ele>
        <time>2013-05-02T15:06:31Z</time>
      </trkpt>
    </trkseg>
  </trk>
</gpx>